• Join FlightAware (Why Join?)
  • Login
  • US Flag 
01:44AM EDT


 

Airport Tracker/Info


-or-


 

Live Flight TrackerFlight Track Log ✈ KAP5 ✈ 30-Aug-2013 ✈ KBOS - KACK

Flight Track Log - Related Links

Times and Time Zones

All times are in EDT time to prevent confusion due to time zone crossing. See the KAP5 flight status page for this flight to view local times or setup timezone preferences in your user account.

Time Position Orientation Groundspeed Altitude Reporting Facility
EDT Latitude Longitude Course Direction KTS MPH feet Rate Location/Type
12:41PM 42.3667 -71.0167 216° Southwest 114 131 500  Level KA90
12:42PM 42.3333 -71.0500 216° Southwest 110 127 1,900 900 Climbing KA90
12:43PM 42.3167 -71.0833 236° Southwest 114 131 2,700 720 Climbing KA90
12:44PM 42.2833 -71.1000 200° South 113 130 3,300 660 Climbing KA90
12:45PM 42.2667 -71.1333 236° Southwest 123 142 4,000 600 Climbing KA90
12:46PM 42.2167 -71.1167 166° South 143 165 4,500 480 Climbing KA90
12:47PM 42.1833 -71.1167 180° South 146 168 5,000 240 Climbing KA90
12:48PM 42.1500 -71.0833 143° Southeast 172 198 5,000  Level KA90
12:49PM 42.1500 -71.0167 90° East 172 198 5,000  Level KA90
12:50PM 42.1333 -70.9667 114° Southeast 165 190 5,000  Level KA90
12:51PM 42.1333 -70.9000 90° East 166 191 5,000  Level KA90
12:52PM 42.1167 -70.8333 109° East 168 193 5,000  Level KA90
12:53PM 42.1167 -70.7667 90° East 169 194 5,000  Level KA90
12:54PM 42.1000 -70.7167 114° Southeast 167 192 5,000  Level KA90
12:55PM 42.1000 -70.6500 90° East 171 197 5,000  Level KA90
12:56PM 42.0833 -70.5833 109° East 169 194 5,000  Level KA90
12:57PM 42.0833 -70.5167 90° East 171 197 5,000  Level KA90
12:58PM 42.0667 -70.4500 109° East 171 197 5,000  Level KA90
01:00PM 42.0581 -70.3636 99° East  Level FlightAware Approximate
01:07PM 42.0113 -70.0333 180° South  Level FlightAware Approximate
01:08PM 41.9749 -70.0333 180° South  Level FlightAware Approximate
01:09PM 41.9386 -70.0333 180° South  Level FlightAware Approximate
01:10PM 41.9023 -70.0333 180° South  Level FlightAware Approximate
01:11PM 41.8660 -70.0333 180° South  Level FlightAware Approximate
01:12PM 41.8297 -70.0333 180° South  Level FlightAware Approximate
01:13PM 41.7933 -70.0333 180° South  Level FlightAware Approximate
01:14PM 41.7570 -70.0333 180° South  Level FlightAware Approximate
01:15PM 41.7207 -70.0333 180° South  Level FlightAware Approximate
01:16PM 41.6844 -70.0333 180° South  Level FlightAware Approximate
01:17PM 41.6481 -70.0333 180° South  Level FlightAware Approximate
01:18PM 41.6117 -70.0333 180° South  Level FlightAware Approximate
01:19PM 41.5757 -70.0382 189° South  Level FlightAware Approximate
01:20PM 41.5398 -70.0454 189° South  Level FlightAware Approximate
01:21PM 41.5038 -70.0500 180° South  Level FlightAware Approximate
01:22PM 41.4674 -70.0500 180° South  Level FlightAware Approximate
01:23PM 41.4311 -70.0500 180° South  Level FlightAware Approximate
01:24PM 41.3948 -70.0500 180° South  Level FlightAware Approximate
01:25PM 41.3585 -70.0500 180° South  Level FlightAware Approximate
01:26PM 41.3222 -70.0500 180° South  Level FlightAware Approximate
01:27PM 41.2859 -70.0500 180° South  Level FlightAware Approximate
01:28PM 41.2500 -70.0500 180° South  Level FlightAware Approximate
01:29PM 41.2531 -70.0603 180° South  Level Estimated
01:30PM 41.2531 -70.0603 180° South  Level Estimated
01:31PM 41.2531 -70.0603 180° South  Level Estimated